Silute, Lithuania

2:05 PM EEST on July 24, 2016 (GMT +0300)
Khrabrovo | | Change Station

Elev 39 ft 54.89 °N, 20.59 °E | Updated 35 minutes ago

Mostly Cloudy
Mostly Cloudy
70 °F
Feels Like 70 °F
N
4
Wind Variable Wind from North

Today
High -- | Low -- °F
--% Chance of Precip.
Yesterday
High -- | Low -- °F
Precip. -- in
Pressure 30.15 in
Visibility 6.2 miles
Clouds Mostly Cloudy 3000 ft
Dew Point 61 °F
Humidity 73%
Rainfall 0.00 in
Snow Depth Not available.
5:27 AM 9:52 PM
Waning Gibbous, 77% visible
METAR UMKK 241030Z 36002MPS 320V040 9999 BKN030 21/16 Q1021 R24/CLRD70 NOSIG RMK QFE765/1020
Pressure 30.15 in
Visibility 6.2 miles
Clouds Mostly Cloudy 3000 ft
Dew Point 61 °F
Humidity 73%
Rainfall 0.00 in
Snow Depth Not available.
5:27 AM 9:52 PM
Waning Gibbous, 77% visible
METAR UMKK 241030Z 36002MPS 320V040 9999 BKN030 21/16 Q1021 R24/CLRD70 NOSIG RMK QFE765/1020

10-Day Weather Forecast

×

Almanac

Astronomy

Jul. 24, 2016 Rise Set
Actual Time
Civil Twilight
Nautical Twilight
Astronomical Twilight
Moon
Length of Visible Light
Length of Day
Tomorrow will be .
, % of the Moon is Illuminated

Today's Extremes

Country Highs Country Lows

Community

WunderPhotos

Upload Photos

1,927,047 photos uploaded!

WunderBlog® & News

Nearby

Air Quality

  Air Quality AQ Index Pollutant
Not available.

Snow Depth

Station Depth Elevation

Earthquake Activity

City Distance Mag. Time & Date
Minimum magnitude displayed is 2.5.

Coastal Water Temperatures

Place Temperature

Stations

Nearby Weather Stations

Station Location Temp. Windchill Dew Point Humidity Wind Precip. Elev Updated Type